sensor_id;sensor_type;location;lat;lon;timestamp;P1;durP1;ratioP1;P2;durP2;ratioP2
79074;SDS011;68476;42.710;23.388;2024-01-16T00:02:24;11.63;;;6.70;;
79074;SDS011;68476;42.710;23.388;2024-01-16T00:04:50;14.63;;;7.70;;
79074;SDS011;68476;42.710;23.388;2024-01-16T00:07:15;12.70;;;8.27;;
79074;SDS011;68476;42.710;23.388;2024-01-16T00:09:41;16.25;;;9.05;;
79074;SDS011;68476;42.710;23.388;2024-01-16T00:12:06;16.80;;;7.93;;
79074;SDS011;68476;42.710;23.388;2024-01-16T00:14:38;13.88;;;8.48;;
79074;SDS011;68476;42.710;23.388;2024-01-16T00:17:03;17.30;;;9.18;;
79074;SDS011;68476;42.710;23.388;2024-01-16T00:19:29;14.85;;;8.35;;
79074;SDS011;68476;42.710;23.388;2024-01-16T00:21:54;14.57;;;8.45;;
79074;SDS011;68476;42.710;23.388;2024-01-16T00:24:20;17.83;;;9.77;;
79074;SDS011;68476;42.710;23.388;2024-01-16T00:26:45;15.65;;;8.82;;
79074;SDS011;68476;42.710;23.388;2024-01-16T00:29:11;14.05;;;7.65;;
79074;SDS011;68476;42.710;23.388;2024-01-16T00:31:40;12.98;;;7.53;;
79074;SDS011;68476;42.710;23.388;2024-01-16T00:34:06;12.07;;;7.45;;
79074;SDS011;68476;42.710;23.388;2024-01-16T00:36:32;15.35;;;8.05;;
79074;SDS011;68476;42.710;23.388;2024-01-16T00:38:58;11.00;;;6.70;;
79074;SDS011;68476;42.710;23.388;2024-01-16T00:41:23;11.07;;;6.85;;
79074;SDS011;68476;42.710;23.388;2024-01-16T00:43:49;11.32;;;6.93;;
79074;SDS011;68476;42.710;23.388;2024-01-16T00:46:14;12.65;;;6.63;;
79074;SDS011;68476;42.710;23.388;2024-01-16T00:48:40;11.77;;;6.60;;
79074;SDS011;68476;42.710;23.388;2024-01-16T00:51:05;10.95;;;6.50;;
79074;SDS011;68476;42.710;23.388;2024-01-16T00:53:31;9.27;;;6.05;;
79074;SDS011;68476;42.710;23.388;2024-01-16T00:55:56;9.38;;;6.07;;
79074;SDS011;68476;42.710;23.388;2024-01-16T00:58:22;11.40;;;6.07;;
79074;SDS011;68476;42.710;23.388;2024-01-16T01:00:48;11.95;;;6.05;;
79074;SDS011;68476;42.710;23.388;2024-01-16T01:03:14;9.60;;;6.40;;
79074;SDS011;68476;42.710;23.388;2024-01-16T01:05:39;12.38;;;7.18;;
79074;SDS011;68476;42.710;23.388;2024-01-16T01:08:05;9.60;;;6.70;;
79074;SDS011;68476;42.710;23.388;2024-01-16T01:10:31;9.88;;;6.30;;
79074;SDS011;68476;42.710;23.388;2024-01-16T01:12:56;10.02;;;6.32;;
79074;SDS011;68476;42.710;23.388;2024-01-16T01:15:22;10.82;;;6.18;;
79074;SDS011;68476;42.710;23.388;2024-01-16T01:17:48;10.38;;;6.63;;
79074;SDS011;68476;42.710;23.388;2024-01-16T01:20:14;12.13;;;8.23;;
79074;SDS011;68476;42.710;23.388;2024-01-16T01:22:40;23.95;;;11.75;;
79074;SDS011;68476;42.710;23.388;2024-01-16T01:25:05;20.17;;;11.38;;
79074;SDS011;68476;42.710;23.388;2024-01-16T01:27:32;21.65;;;12.45;;
79074;SDS011;68476;42.710;23.388;2024-01-16T01:29:57;26.02;;;13.23;;
79074;SDS011;68476;42.710;23.388;2024-01-16T01:32:23;30.27;;;15.32;;
79074;SDS011;68476;42.710;23.388;2024-01-16T01:34:49;27.77;;;16.00;;
79074;SDS011;68476;42.710;23.388;2024-01-16T01:37:14;33.42;;;16.15;;
79074;SDS011;68476;42.710;23.388;2024-01-16T01:39:40;28.00;;;14.93;;
79074;SDS011;68476;42.710;23.388;2024-01-16T01:42:06;24.02;;;13.32;;
79074;SDS011;68476;42.710;23.388;2024-01-16T01:44:31;30.02;;;16.30;;
79074;SDS011;68476;42.710;23.388;2024-01-16T01:46:57;24.25;;;12.65;;
79074;SDS011;68476;42.710;23.388;2024-01-16T01:49:23;31.77;;;15.95;;
79074;SDS011;68476;42.710;23.388;2024-01-16T01:51:50;28.80;;;15.50;;
79074;SDS011;68476;42.710;23.388;2024-01-16T01:54:16;34.30;;;17.15;;
79074;SDS011;68476;42.710;23.388;2024-01-16T01:56:44;23.75;;;11.90;;
79074;SDS011;68476;42.710;23.388;2024-01-16T01:59:11;26.10;;;13.57;;
79074;SDS011;68476;42.710;23.388;2024-01-16T02:01:38;23.70;;;12.40;;
79074;SDS011;68476;42.710;23.388;2024-01-16T02:04:05;8.65;;;6.45;;
79074;SDS011;68476;42.710;23.388;2024-01-16T02:06:32;19.17;;;11.57;;
79074;SDS011;68476;42.710;23.388;2024-01-16T02:08:58;21.85;;;12.10;;
79074;SDS011;68476;42.710;23.388;2024-01-16T02:11:24;23.45;;;11.82;;
79074;SDS011;68476;42.710;23.388;2024-01-16T02:13:50;19.02;;;10.43;;
79074;SDS011;68476;42.710;23.388;2024-01-16T02:16:19;18.33;;;10.75;;
79074;SDS011;68476;42.710;23.388;2024-01-16T02:18:45;18.75;;;10.88;;
79074;SDS011;68476;42.710;23.388;2024-01-16T02:21:11;19.98;;;10.52;;
79074;SDS011;68476;42.710;23.388;2024-01-16T02:23:41;20.17;;;10.82;;
79074;SDS011;68476;42.710;23.388;2024-01-16T02:26:07;19.85;;;11.43;;
79074;SDS011;68476;42.710;23.388;2024-01-16T02:28:33;17.80;;;9.98;;
79074;SDS011;68476;42.710;23.388;2024-01-16T02:30:58;20.23;;;11.45;;
79074;SDS011;68476;42.710;23.388;2024-01-16T02:33:24;17.88;;;10.80;;
79074;SDS011;68476;42.710;23.388;2024-01-16T02:35:49;17.13;;;10.23;;
79074;SDS011;68476;42.710;23.388;2024-01-16T02:38:14;18.63;;;10.60;;
79074;SDS011;68476;42.710;23.388;2024-01-16T02:40:40;18.48;;;9.60;;
79074;SDS011;68476;42.710;23.388;2024-01-16T02:43:05;16.88;;;9.98;;
79074;SDS011;68476;42.710;23.388;2024-01-16T02:45:32;17.83;;;10.88;;
79074;SDS011;68476;42.710;23.388;2024-01-16T02:47:57;17.15;;;10.43;;
79074;SDS011;68476;42.710;23.388;2024-01-16T02:50:23;17.13;;;9.27;;
79074;SDS011;68476;42.710;23.388;2024-01-16T02:52:48;17.23;;;9.73;;
79074;SDS011;68476;42.710;23.388;2024-01-16T02:55:14;14.65;;;9.25;;
79074;SDS011;68476;42.710;23.388;2024-01-16T02:57:39;16.25;;;9.75;;
79074;SDS011;68476;42.710;23.388;2024-01-16T03:00:05;13.35;;;8.07;;
79074;SDS011;68476;42.710;23.388;2024-01-16T03:02:32;15.93;;;9.18;;
79074;SDS011;68476;42.710;23.388;2024-01-16T03:04:58;16.95;;;10.45;;
79074;SDS011;68476;42.710;23.388;2024-01-16T03:07:24;14.90;;;8.85;;
79074;SDS011;68476;42.710;23.388;2024-01-16T03:09:49;17.52;;;9.88;;
79074;SDS011;68476;42.710;23.388;2024-01-16T03:12:15;16.85;;;8.70;;
79074;SDS011;68476;42.710;23.388;2024-01-16T03:14:40;16.10;;;8.40;;
79074;SDS011;68476;42.710;23.388;2024-01-16T03:17:06;12.27;;;8.02;;
79074;SDS011;68476;42.710;23.388;2024-01-16T03:19:32;11.60;;;7.30;;
79074;SDS011;68476;42.710;23.388;2024-01-16T03:21:57;7.57;;;5.43;;
79074;SDS011;68476;42.710;23.388;2024-01-16T03:24:23;7.07;;;4.63;;
79074;SDS011;68476;42.710;23.388;2024-01-16T03:26:49;5.72;;;4.10;;
79074;SDS011;68476;42.710;23.388;2024-01-16T03:29:14;5.10;;;3.88;;
79074;SDS011;68476;42.710;23.388;2024-01-16T03:31:40;5.57;;;4.38;;
79074;SDS011;68476;42.710;23.388;2024-01-16T03:34:05;6.20;;;5.07;;
79074;SDS011;68476;42.710;23.388;2024-01-16T03:36:33;8.95;;;4.82;;
79074;SDS011;68476;42.710;23.388;2024-01-16T03:38:59;6.30;;;4.70;;
79074;SDS011;68476;42.710;23.388;2024-01-16T03:41:24;7.47;;;5.18;;
79074;SDS011;68476;42.710;23.388;2024-01-16T03:43:50;6.50;;;4.68;;
79074;SDS011;68476;42.710;23.388;2024-01-16T03:46:15;7.10;;;4.85;;
79074;SDS011;68476;42.710;23.388;2024-01-16T03:48:41;5.80;;;5.20;;
79074;SDS011;68476;42.710;23.388;2024-01-16T03:51:07;6.97;;;5.53;;
79074;SDS011;68476;42.710;23.388;2024-01-16T03:53:32;5.57;;;4.55;;
79074;SDS011;68476;42.710;23.388;2024-01-16T03:55:58;6.22;;;4.68;;
79074;SDS011;68476;42.710;23.388;2024-01-16T03:58:24;6.20;;;3.80;;
79074;SDS011;68476;42.710;23.388;2024-01-16T04:00:50;4.10;;;3.15;;
79074;SDS011;68476;42.710;23.388;2024-01-16T04:03:18;4.07;;;3.25;;
79074;SDS011;68476;42.710;23.388;2024-01-16T04:05:43;4.00;;;3.00;;
79074;SDS011;68476;42.710;23.388;2024-01-16T04:08:09;3.78;;;3.10;;
79074;SDS011;68476;42.710;23.388;2024-01-16T04:10:35;4.20;;;3.00;;
79074;SDS011;68476;42.710;23.388;2024-01-16T04:13:01;3.45;;;2.70;;
79074;SDS011;68476;42.710;23.388;2024-01-16T04:15:27;4.13;;;3.53;;
79074;SDS011;68476;42.710;23.388;2024-01-16T04:17:52;4.07;;;2.97;;
79074;SDS011;68476;42.710;23.388;2024-01-16T04:20:18;3.35;;;2.80;;
79074;SDS011;68476;42.710;23.388;2024-01-16T04:22:43;3.67;;;2.60;;
79074;SDS011;68476;42.710;23.388;2024-01-16T04:25:10;3.30;;;2.83;;
79074;SDS011;68476;42.710;23.388;2024-01-16T04:27:36;4.82;;;3.15;;
79074;SDS011;68476;42.710;23.388;2024-01-16T04:30:01;3.50;;;3.05;;
79074;SDS011;68476;42.710;23.388;2024-01-16T04:32:27;3.63;;;2.75;;
79074;SDS011;68476;42.710;23.388;2024-01-16T04:34:52;3.45;;;2.90;;
79074;SDS011;68476;42.710;23.388;2024-01-16T04:37:18;4.20;;;2.67;;
79074;SDS011;68476;42.710;23.388;2024-01-16T04:39:44;3.33;;;2.60;;
79074;SDS011;68476;42.710;23.388;2024-01-16T04:42:09;3.08;;;2.42;;
79074;SDS011;68476;42.710;23.388;2024-01-16T04:44:35;3.60;;;2.63;;
79074;SDS011;68476;42.710;23.388;2024-01-16T04:47:00;3.53;;;2.90;;
79074;SDS011;68476;42.710;23.388;2024-01-16T04:49:27;4.43;;;2.90;;
79074;SDS011;68476;42.710;23.388;2024-01-16T04:51:52;4.50;;;3.00;;
79074;SDS011;68476;42.710;23.388;2024-01-16T04:54:17;3.75;;;2.78;;
79074;SDS011;68476;42.710;23.388;2024-01-16T04:56:43;3.90;;;2.80;;
79074;SDS011;68476;42.710;23.388;2024-01-16T04:59:08;5.07;;;4.00;;
79074;SDS011;68476;42.710;23.388;2024-01-16T05:01:34;4.03;;;3.25;;
79074;SDS011;68476;42.710;23.388;2024-01-16T05:03:59;3.40;;;2.92;;
79074;SDS011;68476;42.710;23.388;2024-01-16T05:06:25;2.90;;;2.33;;
79074;SDS011;68476;42.710;23.388;2024-01-16T05:08:50;4.20;;;3.25;;
79074;SDS011;68476;42.710;23.388;2024-01-16T05:11:16;5.15;;;3.70;;
79074;SDS011;68476;42.710;23.388;2024-01-16T05:13:41;3.95;;;3.38;;
79074;SDS011;68476;42.710;23.388;2024-01-16T05:16:07;4.38;;;3.00;;
79074;SDS011;68476;42.710;23.388;2024-01-16T05:18:33;3.75;;;3.10;;
79074;SDS011;68476;42.710;23.388;2024-01-16T05:20:58;3.25;;;2.70;;
79074;SDS011;68476;42.710;23.388;2024-01-16T05:23:24;4.53;;;4.10;;
79074;SDS011;68476;42.710;23.388;2024-01-16T05:25:49;4.82;;;4.18;;
79074;SDS011;68476;42.710;23.388;2024-01-16T05:28:15;4.20;;;3.47;;
79074;SDS011;68476;42.710;23.388;2024-01-16T05:30:41;3.60;;;2.80;;
79074;SDS011;68476;42.710;23.388;2024-01-16T05:33:06;4.32;;;3.50;;
79074;SDS011;68476;42.710;23.388;2024-01-16T05:35:33;4.80;;;3.63;;
79074;SDS011;68476;42.710;23.388;2024-01-16T05:37:58;3.97;;;3.13;;
79074;SDS011;68476;42.710;23.388;2024-01-16T05:40:24;3.85;;;3.33;;
79074;SDS011;68476;42.710;23.388;2024-01-16T05:42:50;5.78;;;3.75;;
79074;SDS011;68476;42.710;23.388;2024-01-16T05:45:15;4.82;;;3.30;;
79074;SDS011;68476;42.710;23.388;2024-01-16T05:47:41;4.45;;;3.08;;
79074;SDS011;68476;42.710;23.388;2024-01-16T05:50:07;4.15;;;3.10;;
79074;SDS011;68476;42.710;23.388;2024-01-16T05:52:33;4.93;;;3.53;;
79074;SDS011;68476;42.710;23.388;2024-01-16T05:55:00;5.68;;;4.10;;
79074;SDS011;68476;42.710;23.388;2024-01-16T05:57:25;6.03;;;3.63;;
79074;SDS011;68476;42.710;23.388;2024-01-16T05:59:51;4.70;;;3.67;;
79074;SDS011;68476;42.710;23.388;2024-01-16T06:02:17;5.03;;;3.35;;
79074;SDS011;68476;42.710;23.388;2024-01-16T06:04:43;4.53;;;2.90;;
79074;SDS011;68476;42.710;23.388;2024-01-16T06:07:08;7.72;;;3.40;;
79074;SDS011;68476;42.710;23.388;2024-01-16T06:09:38;4.07;;;2.78;;
79074;SDS011;68476;42.710;23.388;2024-01-16T06:12:05;3.75;;;2.85;;
79074;SDS011;68476;42.710;23.388;2024-01-16T06:14:32;4.25;;;2.50;;
79074;SDS011;68476;42.710;23.388;2024-01-16T06:16:57;3.90;;;2.60;;
79074;SDS011;68476;42.710;23.388;2024-01-16T06:19:23;3.80;;;2.47;;
79074;SDS011;68476;42.710;23.388;2024-01-16T06:21:48;4.03;;;2.40;;
79074;SDS011;68476;42.710;23.388;2024-01-16T06:24:14;3.85;;;2.78;;
79074;SDS011;68476;42.710;23.388;2024-01-16T06:26:39;3.33;;;2.22;;
79074;SDS011;68476;42.710;23.388;2024-01-16T06:29:05;4.20;;;2.67;;
79074;SDS011;68476;42.710;23.388;2024-01-16T06:31:31;3.83;;;2.92;;
79074;SDS011;68476;42.710;23.388;2024-01-16T06:33:56;4.53;;;3.20;;
79074;SDS011;68476;42.710;23.388;2024-01-16T06:36:22;4.90;;;3.42;;
79074;SDS011;68476;42.710;23.388;2024-01-16T06:38:47;5.95;;;4.03;;
79074;SDS011;68476;42.710;23.388;2024-01-16T06:41:13;5.97;;;4.22;;
79074;SDS011;68476;42.710;23.388;2024-01-16T06:43:38;4.00;;;2.95;;
79074;SDS011;68476;42.710;23.388;2024-01-16T06:46:04;5.65;;;3.20;;
79074;SDS011;68476;42.710;23.388;2024-01-16T06:48:30;5.43;;;3.10;;
79074;SDS011;68476;42.710;23.388;2024-01-16T06:50:56;4.82;;;3.42;;
79074;SDS011;68476;42.710;23.388;2024-01-16T06:53:21;5.63;;;3.75;;
79074;SDS011;68476;42.710;23.388;2024-01-16T06:55:47;5.50;;;4.03;;
79074;SDS011;68476;42.710;23.388;2024-01-16T06:58:13;4.80;;;3.60;;
79074;SDS011;68476;42.710;23.388;2024-01-16T07:00:39;6.22;;;4.05;;
79074;SDS011;68476;42.710;23.388;2024-01-16T07:03:06;5.75;;;3.88;;
79074;SDS011;68476;42.710;23.388;2024-01-16T07:05:32;5.40;;;4.28;;
79074;SDS011;68476;42.710;23.388;2024-01-16T07:07:58;5.28;;;3.30;;
79074;SDS011;68476;42.710;23.388;2024-01-16T07:10:23;5.40;;;3.80;;
79074;SDS011;68476;42.710;23.388;2024-01-16T07:12:49;4.88;;;3.55;;
79074;SDS011;68476;42.710;23.388;2024-01-16T07:15:16;4.30;;;3.30;;
79074;SDS011;68476;42.710;23.388;2024-01-16T07:17:42;3.95;;;3.10;;
79074;SDS011;68476;42.710;23.388;2024-01-16T07:20:08;5.82;;;3.60;;
79074;SDS011;68476;42.710;23.388;2024-01-16T07:22:34;6.57;;;4.15;;
79074;SDS011;68476;42.710;23.388;2024-01-16T07:24:59;7.40;;;4.20;;
79074;SDS011;68476;42.710;23.388;2024-01-16T07:27:25;7.05;;;4.10;;
79074;SDS011;68476;42.710;23.388;2024-01-16T07:29:51;5.43;;;3.92;;
79074;SDS011;68476;42.710;23.388;2024-01-16T07:32:16;5.03;;;3.97;;
79074;SDS011;68476;42.710;23.388;2024-01-16T07:34:42;4.78;;;3.15;;
79074;SDS011;68476;42.710;23.388;2024-01-16T07:37:07;5.10;;;3.17;;
79074;SDS011;68476;42.710;23.388;2024-01-16T07:39:33;3.45;;;2.90;;
79074;SDS011;68476;42.710;23.388;2024-01-16T07:41:58;4.35;;;2.85;;
79074;SDS011;68476;42.710;23.388;2024-01-16T07:44:24;3.83;;;2.92;;
79074;SDS011;68476;42.710;23.388;2024-01-16T07:46:50;4.28;;;3.22;;
79074;SDS011;68476;42.710;23.388;2024-01-16T07:49:15;4.15;;;2.88;;
79074;SDS011;68476;42.710;23.388;2024-01-16T07:51:41;5.30;;;3.17;;
79074;SDS011;68476;42.710;23.388;2024-01-16T07:54:08;4.65;;;3.35;;
79074;SDS011;68476;42.710;23.388;2024-01-16T07:56:37;4.18;;;3.17;;
79074;SDS011;68476;42.710;23.388;2024-01-16T07:59:03;5.68;;;3.90;;
79074;SDS011;68476;42.710;23.388;2024-01-16T08:01:28;5.35;;;3.63;;
79074;SDS011;68476;42.710;23.388;2024-01-16T08:03:54;7.18;;;3.38;;
79074;SDS011;68476;42.710;23.388;2024-01-16T08:06:21;4.40;;;3.50;;
79074;SDS011;68476;42.710;23.388;2024-01-16T08:08:47;6.72;;;4.50;;
79074;SDS011;68476;42.710;23.388;2024-01-16T08:11:12;4.72;;;3.50;;
79074;SDS011;68476;42.710;23.388;2024-01-16T08:13:38;5.50;;;3.72;;
79074;SDS011;68476;42.710;23.388;2024-01-16T08:16:03;4.38;;;3.20;;
79074;SDS011;68476;42.710;23.388;2024-01-16T08:18:30;5.07;;;4.10;;
79074;SDS011;68476;42.710;23.388;2024-01-16T08:20:56;6.13;;;3.70;;
79074;SDS011;68476;42.710;23.388;2024-01-16T08:23:22;4.40;;;3.25;;
79074;SDS011;68476;42.710;23.388;2024-01-16T08:25:48;4.45;;;3.15;;
79074;SDS011;68476;42.710;23.388;2024-01-16T08:28:14;4.00;;;3.00;;
79074;SDS011;68476;42.710;23.388;2024-01-16T08:30:40;5.72;;;3.83;;
79074;SDS011;68476;42.710;23.388;2024-01-16T08:33:05;6.05;;;4.10;;
79074;SDS011;68476;42.710;23.388;2024-01-16T08:35:32;6.68;;;3.75;;
79074;SDS011;68476;42.710;23.388;2024-01-16T08:37:58;8.95;;;5.68;;
79074;SDS011;68476;42.710;23.388;2024-01-16T08:40:23;5.10;;;3.90;;
79074;SDS011;68476;42.710;23.388;2024-01-16T08:42:49;4.82;;;3.30;;
79074;SDS011;68476;42.710;23.388;2024-01-16T08:45:19;4.00;;;2.53;;
79074;SDS011;68476;42.710;23.388;2024-01-16T08:47:48;5.25;;;3.92;;
79074;SDS011;68476;42.710;23.388;2024-01-16T08:50:14;5.65;;;3.40;;
79074;SDS011;68476;42.710;23.388;2024-01-16T08:52:40;5.57;;;3.85;;
79074;SDS011;68476;42.710;23.388;2024-01-16T08:55:07;5.10;;;3.30;;
79074;SDS011;68476;42.710;23.388;2024-01-16T08:57:33;4.10;;;3.22;;
79074;SDS011;68476;42.710;23.388;2024-01-16T08:59:59;5.13;;;3.28;;
79074;SDS011;68476;42.710;23.388;2024-01-16T09:02:25;4.60;;;3.45;;
79074;SDS011;68476;42.710;23.388;2024-01-16T09:04:54;3.97;;;2.90;;
79074;SDS011;68476;42.710;23.388;2024-01-16T09:07:20;5.15;;;3.35;;
79074;SDS011;68476;42.710;23.388;2024-01-16T09:09:45;4.15;;;3.17;;
79074;SDS011;68476;42.710;23.388;2024-01-16T09:12:10;4.63;;;3.15;;
79074;SDS011;68476;42.710;23.388;2024-01-16T09:14:37;4.43;;;3.17;;
79074;SDS011;68476;42.710;23.388;2024-01-16T09:17:03;5.28;;;3.63;;
79074;SDS011;68476;42.710;23.388;2024-01-16T09:19:28;5.93;;;3.42;;
79074;SDS011;68476;42.710;23.388;2024-01-16T09:21:54;4.53;;;3.70;;
79074;SDS011;68476;42.710;23.388;2024-01-16T09:24:20;4.63;;;3.38;;
79074;SDS011;68476;42.710;23.388;2024-01-16T09:26:46;5.57;;;3.60;;
79074;SDS011;68476;42.710;23.388;2024-01-16T09:29:12;5.93;;;3.65;;
79074;SDS011;68476;42.710;23.388;2024-01-16T09:31:39;6.13;;;3.92;;
79074;SDS011;68476;42.710;23.388;2024-01-16T09:34:04;6.47;;;3.33;;
79074;SDS011;68476;42.710;23.388;2024-01-16T09:36:30;5.45;;;4.05;;
79074;SDS011;68476;42.710;23.388;2024-01-16T09:38:55;5.95;;;3.85;;
79074;SDS011;68476;42.710;23.388;2024-01-16T09:41:21;5.93;;;3.72;;
79074;SDS011;68476;42.710;23.388;2024-01-16T09:43:47;4.95;;;2.83;;
79074;SDS011;68476;42.710;23.388;2024-01-16T09:46:12;5.43;;;3.08;;
79074;SDS011;68476;42.710;23.388;2024-01-16T09:48:41;5.60;;;3.35;;
79074;SDS011;68476;42.710;23.388;2024-01-16T09:51:10;5.95;;;3.92;;
79074;SDS011;68476;42.710;23.388;2024-01-16T09:56:06;5.50;;;3.50;;
79074;SDS011;68476;42.710;23.388;2024-01-16T09:58:39;6.65;;;3.80;;
79074;SDS011;68476;42.710;23.388;2024-01-16T10:01:05;5.45;;;3.30;;
79074;SDS011;68476;42.710;23.388;2024-01-16T10:03:31;4.13;;;3.08;;
79074;SDS011;68476;42.710;23.388;2024-01-16T10:05:58;3.65;;;3.15;;
79074;SDS011;68476;42.710;23.388;2024-01-16T10:08:25;4.00;;;2.85;;
79074;SDS011;68476;42.710;23.388;2024-01-16T10:10:52;5.20;;;2.97;;
79074;SDS011;68476;42.710;23.388;2024-01-16T10:13:17;3.08;;;2.35;;
79074;SDS011;68476;42.710;23.388;2024-01-16T10:15:44;4.55;;;3.13;;
79074;SDS011;68476;42.710;23.388;2024-01-16T10:18:32;3.92;;;2.88;;
79074;SDS011;68476;42.710;23.388;2024-01-16T10:20:59;3.13;;;2.40;;
79074;SDS011;68476;42.710;23.388;2024-01-16T10:23:28;8.00;;;3.92;;
79074;SDS011;68476;42.710;23.388;2024-01-16T10:26:09;5.07;;;3.17;;
79074;SDS011;68476;42.710;23.388;2024-01-16T10:28:37;9.52;;;3.42;;
79074;SDS011;68476;42.710;23.388;2024-01-16T10:31:04;3.75;;;2.65;;
79074;SDS011;68476;42.710;23.388;2024-01-16T10:33:30;4.68;;;3.20;;
79074;SDS011;68476;42.710;23.388;2024-01-16T10:36:07;7.55;;;3.63;;
79074;SDS011;68476;42.710;23.388;2024-01-16T10:38:40;5.05;;;3.25;;
79074;SDS011;68476;42.710;23.388;2024-01-16T10:41:14;4.75;;;2.70;;
79074;SDS011;68476;42.710;23.388;2024-01-16T10:43:40;4.75;;;2.83;;
79074;SDS011;68476;42.710;23.388;2024-01-16T10:46:16;3.53;;;2.85;;
79074;SDS011;68476;42.710;23.388;2024-01-16T10:51:09;4.88;;;3.05;;
79074;SDS011;68476;42.710;23.388;2024-01-16T10:53:37;4.22;;;3.10;;
79074;SDS011;68476;42.710;23.388;2024-01-16T10:56:09;4.63;;;3.38;;
79074;SDS011;68476;42.710;23.388;2024-01-16T10:58:36;6.57;;;3.80;;
79074;SDS011;68476;42.710;23.388;2024-01-16T11:01:05;5.20;;;2.92;;
79074;SDS011;68476;42.710;23.388;2024-01-16T11:03:49;4.68;;;3.20;;
79074;SDS011;68476;42.710;23.388;2024-01-16T11:06:16;4.78;;;2.83;;
79074;SDS011;68476;42.710;23.388;2024-01-16T11:08:42;5.53;;;3.80;;
79074;SDS011;68476;42.710;23.388;2024-01-16T11:11:11;4.25;;;2.65;;
79074;SDS011;68476;42.710;23.388;2024-01-16T11:13:38;5.85;;;3.28;;
79074;SDS011;68476;42.710;23.388;2024-01-16T11:16:04;4.82;;;3.13;;
79074;SDS011;68476;42.710;23.388;2024-01-16T11:18:31;6.03;;;2.80;;
79074;SDS011;68476;42.710;23.388;2024-01-16T11:21:00;7.00;;;3.58;;
79074;SDS011;68476;42.710;23.388;2024-01-16T11:23:29;5.80;;;3.25;;
79074;SDS011;68476;42.710;23.388;2024-01-16T11:25:55;4.38;;;3.58;;
79074;SDS011;68476;42.710;23.388;2024-01-16T11:28:20;5.28;;;3.25;;
79074;SDS011;68476;42.710;23.388;2024-01-16T11:30:53;4.70;;;3.38;;
79074;SDS011;68476;42.710;23.388;2024-01-16T11:35:56;6.25;;;3.50;;
79074;SDS011;68476;42.710;23.388;2024-01-16T11:38:22;5.53;;;3.47;;
79074;SDS011;68476;42.710;23.388;2024-01-16T11:40:48;6.22;;;3.45;;
79074;SDS011;68476;42.710;23.388;2024-01-16T11:45:58;6.32;;;3.60;;
79074;SDS011;68476;42.710;23.388;2024-01-16T11:48:24;3.92;;;2.80;;
79074;SDS011;68476;42.710;23.388;2024-01-16T11:50:50;4.10;;;2.53;;
79074;SDS011;68476;42.710;23.388;2024-01-16T11:53:36;5.90;;;3.08;;
79074;SDS011;68476;42.710;23.388;2024-01-16T12:01:30;4.55;;;2.92;;
79074;SDS011;68476;42.710;23.388;2024-01-16T12:06:30;4.70;;;2.75;;
79074;SDS011;68476;42.710;23.388;2024-01-16T12:09:15;5.50;;;3.50;;
79074;SDS011;68476;42.710;23.388;2024-01-16T12:11:44;4.32;;;3.10;;
79074;SDS011;68476;42.710;23.388;2024-01-16T12:14:22;4.65;;;2.90;;
79074;SDS011;68476;42.710;23.388;2024-01-16T12:16:47;6.90;;;2.92;;
79074;SDS011;68476;42.710;23.388;2024-01-16T12:19:13;4.65;;;2.95;;
79074;SDS011;68476;42.710;23.388;2024-01-16T12:21:39;3.78;;;2.70;;
79074;SDS011;68476;42.710;23.388;2024-01-16T12:24:08;4.00;;;2.63;;
79074;SDS011;68476;42.710;23.388;2024-01-16T12:26:35;4.75;;;2.88;;
79074;SDS011;68476;42.710;23.388;2024-01-16T12:29:01;3.53;;;2.42;;
79074;SDS011;68476;42.710;23.388;2024-01-16T12:31:27;7.70;;;2.78;;
79074;SDS011;68476;42.710;23.388;2024-01-16T12:33:54;3.47;;;2.40;;
79074;SDS011;68476;42.710;23.388;2024-01-16T12:36:40;3.55;;;2.10;;
79074;SDS011;68476;42.710;23.388;2024-01-16T12:39:05;3.67;;;2.50;;
79074;SDS011;68476;42.710;23.388;2024-01-16T12:41:36;3.72;;;2.17;;
79074;SDS011;68476;42.710;23.388;2024-01-16T12:44:06;3.22;;;2.30;;
79074;SDS011;68476;42.710;23.388;2024-01-16T12:46:31;3.58;;;2.33;;
79074;SDS011;68476;42.710;23.388;2024-01-16T12:49:03;4.43;;;2.15;;
79074;SDS011;68476;42.710;23.388;2024-01-16T12:51:31;2.60;;;1.92;;
79074;SDS011;68476;42.710;23.388;2024-01-16T12:54:09;3.47;;;2.30;;
79074;SDS011;68476;42.710;23.388;2024-01-16T12:56:39;3.65;;;2.28;;
79074;SDS011;68476;42.710;23.388;2024-01-16T12:59:11;3.50;;;2.45;;
79074;SDS011;68476;42.710;23.388;2024-01-16T13:01:39;3.35;;;2.10;;
79074;SDS011;68476;42.710;23.388;2024-01-16T13:04:09;3.13;;;2.17;;
79074;SDS011;68476;42.710;23.388;2024-01-16T13:06:39;4.18;;;2.85;;
79074;SDS011;68476;42.710;23.388;2024-01-16T13:09:09;4.43;;;2.65;;
79074;SDS011;68476;42.710;23.388;2024-01-16T13:11:46;3.13;;;2.33;;
79074;SDS011;68476;42.710;23.388;2024-01-16T13:14:16;2.90;;;2.17;;
79074;SDS011;68476;42.710;23.388;2024-01-16T13:16:42;2.83;;;2.10;;
79074;SDS011;68476;42.710;23.388;2024-01-16T13:19:08;4.28;;;2.03;;
79074;SDS011;68476;42.710;23.388;2024-01-16T13:21:36;2.95;;;2.08;;
79074;SDS011;68476;42.710;23.388;2024-01-16T13:24:06;3.13;;;2.20;;
79074;SDS011;68476;42.710;23.388;2024-01-16T13:26:32;4.35;;;2.22;;
79074;SDS011;68476;42.710;23.388;2024-01-16T13:28:57;2.72;;;2.17;;
79074;SDS011;68476;42.710;23.388;2024-01-16T13:31:23;3.85;;;2.40;;
79074;SDS011;68476;42.710;23.388;2024-01-16T13:33:48;4.43;;;3.15;;
79074;SDS011;68476;42.710;23.388;2024-01-16T13:36:14;4.38;;;2.50;;
79074;SDS011;68476;42.710;23.388;2024-01-16T13:38:39;4.10;;;2.10;;
79074;SDS011;68476;42.710;23.388;2024-01-16T13:41:05;5.70;;;2.22;;
79074;SDS011;68476;42.710;23.388;2024-01-16T13:43:30;4.05;;;2.70;;
79074;SDS011;68476;42.710;23.388;2024-01-16T13:45:56;3.97;;;2.70;;
79074;SDS011;68476;42.710;23.388;2024-01-16T13:48:22;4.13;;;2.70;;
79074;SDS011;68476;42.710;23.388;2024-01-16T13:50:47;4.97;;;2.80;;
79074;SDS011;68476;42.710;23.388;2024-01-16T13:53:13;5.25;;;3.22;;
79074;SDS011;68476;42.710;23.388;2024-01-16T13:55:39;4.05;;;2.92;;
79074;SDS011;68476;42.710;23.388;2024-01-16T13:58:06;4.97;;;2.80;;
79074;SDS011;68476;42.710;23.388;2024-01-16T14:00:32;6.38;;;3.10;;
79074;SDS011;68476;42.710;23.388;2024-01-16T14:02:57;6.32;;;2.70;;
79074;SDS011;68476;42.710;23.388;2024-01-16T14:05:22;4.20;;;2.75;;
79074;SDS011;68476;42.710;23.388;2024-01-16T14:07:48;3.17;;;2.53;;
79074;SDS011;68476;42.710;23.388;2024-01-16T14:10:19;4.13;;;2.78;;
79074;SDS011;68476;42.710;23.388;2024-01-16T14:12:46;5.13;;;2.83;;
79074;SDS011;68476;42.710;23.388;2024-01-16T14:15:14;3.95;;;2.83;;
79074;SDS011;68476;42.710;23.388;2024-01-16T14:17:45;3.90;;;2.85;;
79074;SDS011;68476;42.710;23.388;2024-01-16T14:20:11;3.60;;;2.95;;
79074;SDS011;68476;42.710;23.388;2024-01-16T14:22:37;5.22;;;3.67;;
79074;SDS011;68476;42.710;23.388;2024-01-16T14:27:37;7.03;;;3.97;;
79074;SDS011;68476;42.710;23.388;2024-01-16T14:30:07;8.00;;;3.50;;
79074;SDS011;68476;42.710;23.388;2024-01-16T14:32:40;6.45;;;3.50;;
79074;SDS011;68476;42.710;23.388;2024-01-16T14:35:07;6.93;;;4.00;;
79074;SDS011;68476;42.710;23.388;2024-01-16T14:37:34;4.55;;;3.30;;
79074;SDS011;68476;42.710;23.388;2024-01-16T14:40:01;3.75;;;2.80;;
79074;SDS011;68476;42.710;23.388;2024-01-16T14:42:28;5.57;;;3.40;;
79074;SDS011;68476;42.710;23.388;2024-01-16T14:44:54;5.20;;;3.13;;
79074;SDS011;68476;42.710;23.388;2024-01-16T14:47:20;9.63;;;5.15;;
79074;SDS011;68476;42.710;23.388;2024-01-16T14:49:45;5.25;;;4.28;;